Aérodrome :
LOGIN :

S'inscrire | Disclaimer

   EN    FR    IT 

 










Légende :    VFR   VFR Marginal   IFR   IFR Intensif   IFR Très Intensif
Visi : 
Plafond : 
>= 8 km
>= 3000ft
5 à 8 km
1000 à 3000 ft
1500m à 5 km
500 à 1000 ft
800 à 1500m
200 à 500 ft
< 800m
< 200 ft
Symboles :   Orages  Brouillard  Fortes neiges  Fortes précipitations  Vent > 20 kt
SIGMETs :   Divers  Orages  Givrage  Turbulence  Onde Orograph.  Cendres Volcan.






- Altitude de l'aérodrome : 49 ft
- Code IATA : SEN


EGMC - Southend

DERNIER METAR :
  • 200520Z 17014KT 9999 FEW022 13/11 Q1002

METARs EXPIRÉS :
  • 200450Z 17013KT 9999 -RA NSC 13/11 Q1002
  • 200420Z 16014KT CAVOK 13/10 Q1002
  • 200350Z 17013KT CAVOK 13/10 Q1002
  • 200250Z 17010KT 9999 -RA NSC 12/09 Q1003

TAF TAF EGMC
Valide du 20 à 06h jusqu'au 20 à 15h UTC


200456Z 2006/2015 17014KT 9999 FEW030
TEMPO 2006/2009 7000 RA BKN012
PROB30
TEMPO 2006/2015 21018G28KT



MET'MAP, la Météo Aéronautique d'un coup d'oeil ! - Copyright ORBIFLY Décembre 2007 - Disclaimer

ORBIFLY MET'MAP TEAM :

Programmation & Développement : Alexandra Zaïnal
Sur une idée originale de : Baudouin d'Aumeries
Assistance à la programmation : Marc-Olivier Méhu
Soutien technique & logistique : Manuel Goepfert

Contact : metmap@orbifly.com




SOURCES & CREDITS :

   NOAA